sensor_id;sensor_type;location;lat;lon;timestamp;temperature;humidity
6462;DHT22;3264;42.862;25.098;2022-09-30T00:01:09;14.10;99.90
6462;DHT22;3264;42.862;25.098;2022-09-30T00:03:43;14.10;99.90
6462;DHT22;3264;42.862;25.098;2022-09-30T00:06:15;14.00;99.90
6462;DHT22;3264;42.862;25.098;2022-09-30T00:08:46;14.00;99.90
6462;DHT22;3264;42.862;25.098;2022-09-30T00:11:15;13.90;99.90
6462;DHT22;3264;42.862;25.098;2022-09-30T00:13:45;13.80;99.90
6462;DHT22;3264;42.862;25.098;2022-09-30T00:16:15;13.80;99.90
6462;DHT22;3264;42.862;25.098;2022-09-30T00:18:44;13.80;99.90
6462;DHT22;3264;42.862;25.098;2022-09-30T00:21:12;13.70;99.90
6462;DHT22;3264;42.862;25.098;2022-09-30T00:23:43;13.60;99.90
6462;DHT22;3264;42.862;25.098;2022-09-30T00:26:14;13.50;99.90
6462;DHT22;3264;42.862;25.098;2022-09-30T00:28:44;13.50;99.90
6462;DHT22;3264;42.862;25.098;2022-09-30T00:31:16;13.50;99.90
6462;DHT22;3264;42.862;25.098;2022-09-30T00:33:45;13.50;99.90
6462;DHT22;3264;42.862;25.098;2022-09-30T00:36:32;13.50;99.90
6462;DHT22;3264;42.862;25.098;2022-09-30T00:39:02;13.50;99.90
6462;DHT22;3264;42.862;25.098;2022-09-30T00:41:31;13.50;99.90
6462;DHT22;3264;42.862;25.098;2022-09-30T00:43:59;13.60;99.90
6462;DHT22;3264;42.862;25.098;2022-09-30T00:46:34;13.60;99.90
6462;DHT22;3264;42.862;25.098;2022-09-30T00:49:11;13.60;99.90
6462;DHT22;3264;42.862;25.098;2022-09-30T00:51:49;13.50;99.90
6462;DHT22;3264;42.862;25.098;2022-09-30T01:00:42;13.50;99.90
6462;DHT22;3264;42.862;25.098;2022-09-30T01:03:44;13.40;99.90
6462;DHT22;3264;42.862;25.098;2022-09-30T01:32:32;13.40;99.90
6462;DHT22;3264;42.862;25.098;2022-09-30T01:35:10;13.40;99.90
6462;DHT22;3264;42.862;25.098;2022-09-30T01:37:48;13.30;99.90
6462;DHT22;3264;42.862;25.098;2022-09-30T01:40:22;13.30;99.90
6462;DHT22;3264;42.862;25.098;2022-09-30T01:42:59;13.30;99.90
6462;DHT22;3264;42.862;25.098;2022-09-30T01:45:48;13.30;99.90
6462;DHT22;3264;42.862;25.098;2022-09-30T01:51:42;13.30;99.90
6462;DHT22;3264;42.862;25.098;2022-09-30T01:54:19;13.30;99.90
6462;DHT22;3264;42.862;25.098;2022-09-30T01:56:50;13.30;99.90
6462;DHT22;3264;42.862;25.098;2022-09-30T01:59:22;13.40;99.90
6462;DHT22;3264;42.862;25.098;2022-09-30T02:01:54;13.50;99.90
6462;DHT22;3264;42.862;25.098;2022-09-30T02:04:28;13.50;99.90
6462;DHT22;3264;42.862;25.098;2022-09-30T02:07:02;13.40;99.90
6462;DHT22;3264;42.862;25.098;2022-09-30T02:09:36;13.30;99.90
6462;DHT22;3264;42.862;25.098;2022-09-30T02:12:09;13.40;99.90
6462;DHT22;3264;42.862;25.098;2022-09-30T02:14:42;13.30;99.90
6462;DHT22;3264;42.862;25.098;2022-09-30T02:17:15;13.30;99.90
6462;DHT22;3264;42.862;25.098;2022-09-30T02:19:48;13.30;99.90
6462;DHT22;3264;42.862;25.098;2022-09-30T02:22:21;13.30;99.90
6462;DHT22;3264;42.862;25.098;2022-09-30T02:25:13;13.30;99.90
6462;DHT22;3264;42.862;25.098;2022-09-30T02:27:58;13.20;99.90
6462;DHT22;3264;42.862;25.098;2022-09-30T02:30:27;13.20;99.90
6462;DHT22;3264;42.862;25.098;2022-09-30T02:32:59;13.10;99.90
6462;DHT22;3264;42.862;25.098;2022-09-30T02:35:30;13.10;99.90
6462;DHT22;3264;42.862;25.098;2022-09-30T02:38:07;13.00;99.90
6462;DHT22;3264;42.862;25.098;2022-09-30T02:40:40;13.00;99.90
6462;DHT22;3264;42.862;25.098;2022-09-30T02:43:10;12.90;99.90
6462;DHT22;3264;42.862;25.098;2022-09-30T02:45:45;12.90;99.90
6462;DHT22;3264;42.862;25.098;2022-09-30T02:48:24;12.80;99.90
6462;DHT22;3264;42.862;25.098;2022-09-30T02:51:01;12.80;99.90
6462;DHT22;3264;42.862;25.098;2022-09-30T02:53:36;12.80;99.90
6462;DHT22;3264;42.862;25.098;2022-09-30T02:56:15;12.80;99.90
6462;DHT22;3264;42.862;25.098;2022-09-30T02:58:45;12.80;99.90
6462;DHT22;3264;42.862;25.098;2022-09-30T03:01:15;12.80;99.90
6462;DHT22;3264;42.862;25.098;2022-09-30T03:03:46;12.90;99.90
6462;DHT22;3264;42.862;25.098;2022-09-30T03:06:16;12.70;99.90
6462;DHT22;3264;42.862;25.098;2022-09-30T03:08:47;12.70;99.90
6462;DHT22;3264;42.862;25.098;2022-09-30T03:11:18;12.70;99.90
6462;DHT22;3264;42.862;25.098;2022-09-30T03:14:05;12.70;99.90
6462;DHT22;3264;42.862;25.098;2022-09-30T03:16:59;12.70;99.90
6462;DHT22;3264;42.862;25.098;2022-09-30T03:19:42;12.70;99.90
6462;DHT22;3264;42.862;25.098;2022-09-30T03:22:25;12.60;99.90
6462;DHT22;3264;42.862;25.098;2022-09-30T03:25:13;12.60;99.90
6462;DHT22;3264;42.862;25.098;2022-09-30T03:27:51;12.60;99.90
6462;DHT22;3264;42.862;25.098;2022-09-30T03:30:24;12.70;99.90
6462;DHT22;3264;42.862;25.098;2022-09-30T03:33:05;12.60;99.90
6462;DHT22;3264;42.862;25.098;2022-09-30T03:38:45;12.60;99.90
6462;DHT22;3264;42.862;25.098;2022-09-30T03:41:22;12.50;99.90
6462;DHT22;3264;42.862;25.098;2022-09-30T03:43:59;12.50;99.90
6462;DHT22;3264;42.862;25.098;2022-09-30T03:46:33;12.50;99.90
6462;DHT22;3264;42.862;25.098;2022-09-30T03:49:04;12.60;99.90
6462;DHT22;3264;42.862;25.098;2022-09-30T03:51:36;12.60;99.90
6462;DHT22;3264;42.862;25.098;2022-09-30T03:54:06;12.60;99.90
6462;DHT22;3264;42.862;25.098;2022-09-30T03:56:37;12.50;99.90
6462;DHT22;3264;42.862;25.098;2022-09-30T03:59:10;12.50;99.90
6462;DHT22;3264;42.862;25.098;2022-09-30T04:01:39;12.50;99.90
6462;DHT22;3264;42.862;25.098;2022-09-30T04:04:08;12.40;99.90
6462;DHT22;3264;42.862;25.098;2022-09-30T04:06:36;12.40;99.90
6462;DHT22;3264;42.862;25.098;2022-09-30T04:09:05;12.40;99.90
6462;DHT22;3264;42.862;25.098;2022-09-30T04:11:33;12.30;99.90
6462;DHT22;3264;42.862;25.098;2022-09-30T04:14:18;12.30;99.90
6462;DHT22;3264;42.862;25.098;2022-09-30T04:16:48;12.20;99.90
6462;DHT22;3264;42.862;25.098;2022-09-30T04:19:19;12.20;99.90
6462;DHT22;3264;42.862;25.098;2022-09-30T04:28:18;12.30;99.90
6462;DHT22;3264;42.862;25.098;2022-09-30T04:30:52;12.20;99.90
6462;DHT22;3264;42.862;25.098;2022-09-30T04:33:19;12.20;99.90
6462;DHT22;3264;42.862;25.098;2022-09-30T04:35:47;12.20;99.90
6462;DHT22;3264;42.862;25.098;2022-09-30T04:38:15;12.30;99.90
6462;DHT22;3264;42.862;25.098;2022-09-30T04:40:44;12.30;99.90
6462;DHT22;3264;42.862;25.098;2022-09-30T04:43:11;12.30;99.90
6462;DHT22;3264;42.862;25.098;2022-09-30T04:45:42;12.40;99.90
6462;DHT22;3264;42.862;25.098;2022-09-30T04:48:13;12.40;99.90
6462;DHT22;3264;42.862;25.098;2022-09-30T04:50:42;12.50;99.90
6462;DHT22;3264;42.862;25.098;2022-09-30T04:53:15;12.50;99.90
6462;DHT22;3264;42.862;25.098;2022-09-30T04:55:56;12.60;99.90
6462;DHT22;3264;42.862;25.098;2022-09-30T04:58:31;12.60;99.90
6462;DHT22;3264;42.862;25.098;2022-09-30T05:01:23;12.60;99.90
6462;DHT22;3264;42.862;25.098;2022-09-30T05:03:54;12.70;99.90
6462;DHT22;3264;42.862;25.098;2022-09-30T05:06:27;12.60;99.90
6462;DHT22;3264;42.862;25.098;2022-09-30T05:09:34;12.70;99.90
6462;DHT22;3264;42.862;25.098;2022-09-30T05:12:10;12.80;99.90
6462;DHT22;3264;42.862;25.098;2022-09-30T05:14:56;12.90;99.90
6462;DHT22;3264;42.862;25.098;2022-09-30T05:21:34;13.10;99.90
6462;DHT22;3264;42.862;25.098;2022-09-30T05:24:02;13.30;99.90
6462;DHT22;3264;42.862;25.098;2022-09-30T05:26:30;13.20;99.90
6462;DHT22;3264;42.862;25.098;2022-09-30T05:28:59;13.20;99.90
6462;DHT22;3264;42.862;25.098;2022-09-30T05:34:48;13.40;99.90
6462;DHT22;3264;42.862;25.098;2022-09-30T05:37:18;13.40;99.90
6462;DHT22;3264;42.862;25.098;2022-09-30T05:46:30;14.00;99.90
6462;DHT22;3264;42.862;25.098;2022-09-30T05:48:59;14.20;99.90
6462;DHT22;3264;42.862;25.098;2022-09-30T05:54:41;14.50;99.90
6462;DHT22;3264;42.862;25.098;2022-09-30T05:57:10;14.80;99.90
6462;DHT22;3264;42.862;25.098;2022-09-30T06:00:13;15.00;99.90
6462;DHT22;3264;42.862;25.098;2022-09-30T06:03:01;15.20;99.90
6462;DHT22;3264;42.862;25.098;2022-09-30T06:05:57;15.50;99.90
6462;DHT22;3264;42.862;25.098;2022-09-30T06:08:26;15.90;99.90
6462;DHT22;3264;42.862;25.098;2022-09-30T06:10:56;16.20;99.90
6462;DHT22;3264;42.862;25.098;2022-09-30T06:13:26;15.90;99.90
6462;DHT22;3264;42.862;25.098;2022-09-30T06:15:55;16.10;99.90
6462;DHT22;3264;42.862;25.098;2022-09-30T06:18:24;16.00;99.90
6462;DHT22;3264;42.862;25.098;2022-09-30T06:20:55;16.40;99.90
6462;DHT22;3264;42.862;25.098;2022-09-30T06:23:23;16.50;99.90
6462;DHT22;3264;42.862;25.098;2022-09-30T06:25:52;16.90;99.90
6462;DHT22;3264;42.862;25.098;2022-09-30T06:28:22;17.40;99.90
6462;DHT22;3264;42.862;25.098;2022-09-30T06:30:50;17.70;99.90
6462;DHT22;3264;42.862;25.098;2022-09-30T06:33:19;18.00;99.90
6462;DHT22;3264;42.862;25.098;2022-09-30T06:35:49;18.00;99.90
6462;DHT22;3264;42.862;25.098;2022-09-30T06:38:17;18.30;99.90
6462;DHT22;3264;42.862;25.098;2022-09-30T06:40:46;18.50;99.90
6462;DHT22;3264;42.862;25.098;2022-09-30T06:43:16;18.20;99.90
6462;DHT22;3264;42.862;25.098;2022-09-30T06:45:46;18.60;99.90
6462;DHT22;3264;42.862;25.098;2022-09-30T06:48:17;19.00;99.90
6462;DHT22;3264;42.862;25.098;2022-09-30T06:50:45;19.30;99.90
6462;DHT22;3264;42.862;25.098;2022-09-30T06:56:35;19.50;99.90
6462;DHT22;3264;42.862;25.098;2022-09-30T06:59:04;19.30;99.90
6462;DHT22;3264;42.862;25.098;2022-09-30T07:01:33;19.50;99.90
6462;DHT22;3264;42.862;25.098;2022-09-30T07:04:01;19.90;99.90
6462;DHT22;3264;42.862;25.098;2022-09-30T07:06:35;19.60;99.90
6462;DHT22;3264;42.862;25.098;2022-09-30T07:12:25;20.20;99.90
6462;DHT22;3264;42.862;25.098;2022-09-30T07:14:53;20.50;99.90
6462;DHT22;3264;42.862;25.098;2022-09-30T07:17:24;20.70;99.90
6462;DHT22;3264;42.862;25.098;2022-09-30T07:19:53;21.10;99.90
6462;DHT22;3264;42.862;25.098;2022-09-30T07:22:22;21.20;98.10
6462;DHT22;3264;42.862;25.098;2022-09-30T07:25:01;21.60;98.50
6462;DHT22;3264;42.862;25.098;2022-09-30T07:27:31;21.10;97.60
6462;DHT22;3264;42.862;25.098;2022-09-30T07:30:00;21.70;97.60
6462;DHT22;3264;42.862;25.098;2022-09-30T07:32:30;22.20;95.60
6462;DHT22;3264;42.862;25.098;2022-09-30T07:34:58;22.40;96.40
6462;DHT22;3264;42.862;25.098;2022-09-30T07:37:26;22.60;97.70
6462;DHT22;3264;42.862;25.098;2022-09-30T07:39:58;22.50;96.20
6462;DHT22;3264;42.862;25.098;2022-09-30T07:42:47;23.10;97.50
6462;DHT22;3264;42.862;25.098;2022-09-30T07:45:15;23.50;94.80
6462;DHT22;3264;42.862;25.098;2022-09-30T07:47:59;23.50;95.20
6462;DHT22;3264;42.862;25.098;2022-09-30T07:53:39;24.30;95.40
6462;DHT22;3264;42.862;25.098;2022-09-30T07:56:17;24.40;94.10
6462;DHT22;3264;42.862;25.098;2022-09-30T07:58:52;24.50;93.10
6462;DHT22;3264;42.862;25.098;2022-09-30T08:01:35;24.70;93.10
6462;DHT22;3264;42.862;25.098;2022-09-30T08:04:08;25.10;93.00
6462;DHT22;3264;42.862;25.098;2022-09-30T08:06:52;25.50;91.10
6462;DHT22;3264;42.862;25.098;2022-09-30T08:09:24;25.80;91.80
6462;DHT22;3264;42.862;25.098;2022-09-30T08:11:53;26.10;91.10
6462;DHT22;3264;42.862;25.098;2022-09-30T08:14:42;26.10;87.90
6462;DHT22;3264;42.862;25.098;2022-09-30T08:17:19;26.30;86.40
6462;DHT22;3264;42.862;25.098;2022-09-30T08:19:49;26.50;85.80
6462;DHT22;3264;42.862;25.098;2022-09-30T08:22:25;25.70;89.80
6462;DHT22;3264;42.862;25.098;2022-09-30T08:28:12;26.50;84.50
6462;DHT22;3264;42.862;25.098;2022-09-30T08:40:50;29.30;70.50
6462;DHT22;3264;42.862;25.098;2022-09-30T08:43:26;29.30;67.60
6462;DHT22;3264;42.862;25.098;2022-09-30T08:46:04;29.40;71.60
6462;DHT22;3264;42.862;25.098;2022-09-30T08:48:37;29.50;68.90
6462;DHT22;3264;42.862;25.098;2022-09-30T08:51:22;30.00;69.20
6462;DHT22;3264;42.862;25.098;2022-09-30T09:00:55;30.70;73.00
6462;DHT22;3264;42.862;25.098;2022-09-30T09:03:28;30.60;62.50
6462;DHT22;3264;42.862;25.098;2022-09-30T09:06:35;30.50;61.90
6462;DHT22;3264;42.862;25.098;2022-09-30T09:12:20;30.70;59.60
6462;DHT22;3264;42.862;25.098;2022-09-30T09:15:06;30.90;59.20
6462;DHT22;3264;42.862;25.098;2022-09-30T09:21:15;30.40;59.00
6462;DHT22;3264;42.862;25.098;2022-09-30T09:23:44;30.50;64.40
6462;DHT22;3264;42.862;25.098;2022-09-30T09:26:14;30.20;59.20
6462;DHT22;3264;42.862;25.098;2022-09-30T09:28:51;29.20;60.00
6462;DHT22;3264;42.862;25.098;2022-09-30T09:31:24;29.40;60.50
6462;DHT22;3264;42.862;25.098;2022-09-30T09:34:00;29.30;60.60
6462;DHT22;3264;42.862;25.098;2022-09-30T09:36:45;28.70;58.20
6462;DHT22;3264;42.862;25.098;2022-09-30T09:39:32;29.00;58.00
6462;DHT22;3264;42.862;25.098;2022-09-30T09:42:14;29.20;57.50
6462;DHT22;3264;42.862;25.098;2022-09-30T09:44:53;29.40;58.00
6462;DHT22;3264;42.862;25.098;2022-09-30T09:47:26;29.10;57.80
6462;DHT22;3264;42.862;25.098;2022-09-30T09:53:41;29.10;62.70
6462;DHT22;3264;42.862;25.098;2022-09-30T09:56:49;29.20;58.90
6462;DHT22;3264;42.862;25.098;2022-09-30T10:19:40;30.00;55.60
6462;DHT22;3264;42.862;25.098;2022-09-30T10:30:54;30.40;57.20
6462;DHT22;3264;42.862;25.098;2022-09-30T10:33:27;30.30;55.50
6462;DHT22;3264;42.862;25.098;2022-09-30T10:39:19;29.30;57.70
6462;DHT22;3264;42.862;25.098;2022-09-30T10:42:00;30.30;59.80
6462;DHT22;3264;42.862;25.098;2022-09-30T10:44:30;30.20;56.50
6462;DHT22;3264;42.862;25.098;2022-09-30T10:47:17;29.20;58.30
6462;DHT22;3264;42.862;25.098;2022-09-30T11:16:04;28.80;57.20
6462;DHT22;3264;42.862;25.098;2022-09-30T11:18:42;28.30;59.10
6462;DHT22;3264;42.862;25.098;2022-09-30T11:21:15;27.70;59.20
6462;DHT22;3264;42.862;25.098;2022-09-30T11:23:47;28.30;59.20
6462;DHT22;3264;42.862;25.098;2022-09-30T11:26:28;27.70;61.50
6462;DHT22;3264;42.862;25.098;2022-09-30T11:29:19;27.40;58.00
6462;DHT22;3264;42.862;25.098;2022-09-30T11:31:55;27.10;61.80
6462;DHT22;3264;42.862;25.098;2022-09-30T11:34:40;27.00;67.60
6462;DHT22;3264;42.862;25.098;2022-09-30T11:49:55;27.00;65.00
6462;DHT22;3264;42.862;25.098;2022-09-30T11:55:34;26.30;72.80
6462;DHT22;3264;42.862;25.098;2022-09-30T11:58:05;26.20;76.50
6462;DHT22;3264;42.862;25.098;2022-09-30T12:04:16;25.90;74.50
6462;DHT22;3264;42.862;25.098;2022-09-30T12:06:53;26.30;72.30
6462;DHT22;3264;42.862;25.098;2022-09-30T12:09:26;26.70;69.10
6462;DHT22;3264;42.862;25.098;2022-09-30T12:12:09;27.00;68.90
6462;DHT22;3264;42.862;25.098;2022-09-30T12:14:47;26.90;65.60
6462;DHT22;3264;42.862;25.098;2022-09-30T12:17:21;26.90;69.20
6462;DHT22;3264;42.862;25.098;2022-09-30T12:19:55;26.50;73.40
6462;DHT22;3264;42.862;25.098;2022-09-30T12:22:36;26.10;75.80
6462;DHT22;3264;42.862;25.098;2022-09-30T12:25:12;26.20;78.20
6462;DHT22;3264;42.862;25.098;2022-09-30T12:27:44;26.10;78.20
6462;DHT22;3264;42.862;25.098;2022-09-30T12:30:15;26.50;76.50
6462;DHT22;3264;42.862;25.098;2022-09-30T12:36:01;27.20;72.70
6462;DHT22;3264;42.862;25.098;2022-09-30T12:42:47;27.40;59.90
6462;DHT22;3264;42.862;25.098;2022-09-30T12:45:39;27.50;70.10
6462;DHT22;3264;42.862;25.098;2022-09-30T12:48:09;27.50;67.90
6462;DHT22;3264;42.862;25.098;2022-09-30T12:50:45;27.70;68.30
6462;DHT22;3264;42.862;25.098;2022-09-30T12:53:21;27.80;65.00
6462;DHT22;3264;42.862;25.098;2022-09-30T12:55:51;27.70;66.50
6462;DHT22;3264;42.862;25.098;2022-09-30T13:25:15;27.60;61.50
6462;DHT22;3264;42.862;25.098;2022-09-30T13:27:45;27.30;58.50
6462;DHT22;3264;42.862;25.098;2022-09-30T13:30:37;27.40;63.50
6462;DHT22;3264;42.862;25.098;2022-09-30T13:33:28;27.30;59.90
6462;DHT22;3264;42.862;25.098;2022-09-30T13:39:22;27.40;60.80
6462;DHT22;3264;42.862;25.098;2022-09-30T13:45:10;27.10;67.00
6462;DHT22;3264;42.862;25.098;2022-09-30T13:47:49;26.90;68.60
6462;DHT22;3264;42.862;25.098;2022-09-30T13:50:42;26.90;66.70
6462;DHT22;3264;42.862;25.098;2022-09-30T13:53:23;26.80;68.00
6462;DHT22;3264;42.862;25.098;2022-09-30T13:55:58;26.70;71.30
6462;DHT22;3264;42.862;25.098;2022-09-30T14:05:23;26.70;66.40
6462;DHT22;3264;42.862;25.098;2022-09-30T14:11:27;26.60;73.70
6462;DHT22;3264;42.862;25.098;2022-09-30T14:14:12;26.40;72.50
6462;DHT22;3264;42.862;25.098;2022-09-30T14:17:16;26.20;72.00
6462;DHT22;3264;42.862;25.098;2022-09-30T14:20:09;26.30;72.60
6462;DHT22;3264;42.862;25.098;2022-09-30T14:22:43;26.10;73.30
6462;DHT22;3264;42.862;25.098;2022-09-30T14:25:13;25.80;69.80
6462;DHT22;3264;42.862;25.098;2022-09-30T14:27:53;25.70;71.90
6462;DHT22;3264;42.862;25.098;2022-09-30T14:34:13;25.50;74.70
6462;DHT22;3264;42.862;25.098;2022-09-30T14:36:43;25.30;78.90
6462;DHT22;3264;42.862;25.098;2022-09-30T14:39:14;24.90;77.90
6462;DHT22;3264;42.862;25.098;2022-09-30T14:41:49;24.90;79.00
6462;DHT22;3264;42.862;25.098;2022-09-30T14:45:01;24.80;78.50
6462;DHT22;3264;42.862;25.098;2022-09-30T14:54:23;24.30;79.00
6462;DHT22;3264;42.862;25.098;2022-09-30T14:57:01;24.20;78.10
6462;DHT22;3264;42.862;25.098;2022-09-30T15:02:48;23.70;82.90
6462;DHT22;3264;42.862;25.098;2022-09-30T15:05:17;23.70;85.10
6462;DHT22;3264;42.862;25.098;2022-09-30T15:07:46;23.50;84.60
6462;DHT22;3264;42.862;25.098;2022-09-30T15:10:19;23.40;84.40
6462;DHT22;3264;42.862;25.098;2022-09-30T15:12:50;23.30;84.20
6462;DHT22;3264;42.862;25.098;2022-09-30T15:15:34;22.80;85.10
6462;DHT22;3264;42.862;25.098;2022-09-30T15:24:35;22.10;91.60
6462;DHT22;3264;42.862;25.098;2022-09-30T15:27:05;21.80;92.90
6462;DHT22;3264;42.862;25.098;2022-09-30T15:29:35;21.60;92.60
6462;DHT22;3264;42.862;25.098;2022-09-30T15:35:17;21.00;92.90
6462;DHT22;3264;42.862;25.098;2022-09-30T15:37:47;21.00;93.00
6462;DHT22;3264;42.862;25.098;2022-09-30T15:40:36;21.00;93.30
6462;DHT22;3264;42.862;25.098;2022-09-30T15:43:46;20.80;94.70
6462;DHT22;3264;42.862;25.098;2022-09-30T15:49:45;20.40;97.50
6462;DHT22;3264;42.862;25.098;2022-09-30T15:52:29;20.20;97.30
6462;DHT22;3264;42.862;25.098;2022-09-30T15:55:36;20.00;97.50
6462;DHT22;3264;42.862;25.098;2022-09-30T15:58:31;19.90;98.20
6462;DHT22;3264;42.862;25.098;2022-09-30T16:01:18;19.80;99.90
6462;DHT22;3264;42.862;25.098;2022-09-30T16:04:21;19.80;99.90
6462;DHT22;3264;42.862;25.098;2022-09-30T16:06:51;19.70;99.90
6462;DHT22;3264;42.862;25.098;2022-09-30T16:09:24;19.60;99.90
6462;DHT22;3264;42.862;25.098;2022-09-30T16:12:00;19.50;99.90
6462;DHT22;3264;42.862;25.098;2022-09-30T16:14:33;19.50;99.90
6462;DHT22;3264;42.862;25.098;2022-09-30T16:17:05;19.30;99.90
6462;DHT22;3264;42.862;25.098;2022-09-30T16:19:34;19.10;99.90
6462;DHT22;3264;42.862;25.098;2022-09-30T16:25:18;19.00;99.90
6462;DHT22;3264;42.862;25.098;2022-09-30T16:27:47;18.80;99.90
6462;DHT22;3264;42.862;25.098;2022-09-30T16:30:18;18.70;99.90
6462;DHT22;3264;42.862;25.098;2022-09-30T16:32:50;18.50;99.90
6462;DHT22;3264;42.862;25.098;2022-09-30T16:35:21;18.40;99.90
6462;DHT22;3264;42.862;25.098;2022-09-30T16:37:59;18.40;99.90
6462;DHT22;3264;42.862;25.098;2022-09-30T16:40:29;18.30;99.90
6462;DHT22;3264;42.862;25.098;2022-09-30T16:42:57;18.30;99.90
6462;DHT22;3264;42.862;25.098;2022-09-30T16:45:27;18.20;99.90
6462;DHT22;3264;42.862;25.098;2022-09-30T16:51:06;17.90;99.90
6462;DHT22;3264;42.862;25.098;2022-09-30T16:53:38;17.80;99.90
6462;DHT22;3264;42.862;25.098;2022-09-30T16:56:20;17.70;99.90
6462;DHT22;3264;42.862;25.098;2022-09-30T16:59:02;17.70;99.90
6462;DHT22;3264;42.862;25.098;2022-09-30T17:01:40;17.70;99.90
6462;DHT22;3264;42.862;25.098;2022-09-30T17:04:24;17.70;99.90
6462;DHT22;3264;42.862;25.098;2022-09-30T17:06:55;17.50;99.90
6462;DHT22;3264;42.862;25.098;2022-09-30T17:09:24;17.40;99.90
6462;DHT22;3264;42.862;25.098;2022-09-30T17:11:53;17.40;99.90
6462;DHT22;3264;42.862;25.098;2022-09-30T17:14:21;17.30;99.90
6462;DHT22;3264;42.862;25.098;2022-09-30T17:16:49;17.40;99.90
6462;DHT22;3264;42.862;25.098;2022-09-30T17:19:21;17.20;99.90
6462;DHT22;3264;42.862;25.098;2022-09-30T17:21:49;17.20;99.90
6462;DHT22;3264;42.862;25.098;2022-09-30T17:24:19;17.10;99.90
6462;DHT22;3264;42.862;25.098;2022-09-30T17:26:51;17.10;99.90
6462;DHT22;3264;42.862;25.098;2022-09-30T17:29:20;17.00;99.90
6462;DHT22;3264;42.862;25.098;2022-09-30T17:31:47;17.10;99.90
6462;DHT22;3264;42.862;25.098;2022-09-30T17:34:16;17.10;99.90
6462;DHT22;3264;42.862;25.098;2022-09-30T17:36:44;17.10;99.90
6462;DHT22;3264;42.862;25.098;2022-09-30T17:39:20;17.20;99.90
6462;DHT22;3264;42.862;25.098;2022-09-30T17:41:50;17.10;99.90
6462;DHT22;3264;42.862;25.098;2022-09-30T17:47:59;16.60;99.90
6462;DHT22;3264;42.862;25.098;2022-09-30T17:50:27;16.60;99.90
6462;DHT22;3264;42.862;25.098;2022-09-30T17:52:55;16.50;99.90
6462;DHT22;3264;42.862;25.098;2022-09-30T17:55:24;16.60;99.90
6462;DHT22;3264;42.862;25.098;2022-09-30T17:58:11;16.60;99.90
6462;DHT22;3264;42.862;25.098;2022-09-30T18:00:48;16.60;99.90
6462;DHT22;3264;42.862;25.098;2022-09-30T18:03:26;16.50;99.90
6462;DHT22;3264;42.862;25.098;2022-09-30T18:05:59;16.50;99.90
6462;DHT22;3264;42.862;25.098;2022-09-30T18:12:03;16.30;99.90
6462;DHT22;3264;42.862;25.098;2022-09-30T18:24:14;16.40;99.90
6462;DHT22;3264;42.862;25.098;2022-09-30T18:26:42;16.30;99.90
6462;DHT22;3264;42.862;25.098;2022-09-30T18:29:10;16.20;99.90
6462;DHT22;3264;42.862;25.098;2022-09-30T18:31:38;16.10;99.90
6462;DHT22;3264;42.862;25.098;2022-09-30T18:34:07;16.00;99.90
6462;DHT22;3264;42.862;25.098;2022-09-30T18:37:10;15.90;99.90
6462;DHT22;3264;42.862;25.098;2022-09-30T18:40:22;15.90;99.90
6462;DHT22;3264;42.862;25.098;2022-09-30T18:42:54;15.80;99.90
6462;DHT22;3264;42.862;25.098;2022-09-30T18:45:54;15.80;99.90
6462;DHT22;3264;42.862;25.098;2022-09-30T18:48:46;15.70;99.90
6462;DHT22;3264;42.862;25.098;2022-09-30T18:59:20;15.70;99.90
6462;DHT22;3264;42.862;25.098;2022-09-30T19:01:49;15.70;99.90
6462;DHT22;3264;42.862;25.098;2022-09-30T19:04:18;15.60;99.90
6462;DHT22;3264;42.862;25.098;2022-09-30T19:06:46;15.50;99.90
6462;DHT22;3264;42.862;25.098;2022-09-30T19:09:15;15.50;99.90
6462;DHT22;3264;42.862;25.098;2022-09-30T19:11:44;15.50;99.90
6462;DHT22;3264;42.862;25.098;2022-09-30T19:14:13;15.40;99.90
6462;DHT22;3264;42.862;25.098;2022-09-30T19:16:43;15.40;99.90
6462;DHT22;3264;42.862;25.098;2022-09-30T19:19:12;15.40;99.90
6462;DHT22;3264;42.862;25.098;2022-09-30T19:21:41;15.30;99.90
6462;DHT22;3264;42.862;25.098;2022-09-30T19:24:10;15.30;99.90
6462;DHT22;3264;42.862;25.098;2022-09-30T19:26:39;15.20;99.90
6462;DHT22;3264;42.862;25.098;2022-09-30T19:35:38;15.10;99.90
6462;DHT22;3264;42.862;25.098;2022-09-30T19:38:06;15.10;99.90
6462;DHT22;3264;42.862;25.098;2022-09-30T19:40:54;15.10;99.90
6462;DHT22;3264;42.862;25.098;2022-09-30T19:49:13;15.00;99.90
6462;DHT22;3264;42.862;25.098;2022-09-30T19:51:41;15.00;99.90
6462;DHT22;3264;42.862;25.098;2022-09-30T19:54:10;15.00;99.90
6462;DHT22;3264;42.862;25.098;2022-09-30T19:56:41;14.90;99.90
6462;DHT22;3264;42.862;25.098;2022-09-30T19:59:09;14.90;99.90
6462;DHT22;3264;42.862;25.098;2022-09-30T20:01:37;14.80;99.90
6462;DHT22;3264;42.862;25.098;2022-09-30T20:04:06;14.80;99.90
6462;DHT22;3264;42.862;25.098;2022-09-30T20:06:35;14.70;99.90
6462;DHT22;3264;42.862;25.098;2022-09-30T20:09:04;14.80;99.90
6462;DHT22;3264;42.862;25.098;2022-09-30T20:11:36;14.70;99.90
6462;DHT22;3264;42.862;25.098;2022-09-30T20:14:06;14.70;99.90
6462;DHT22;3264;42.862;25.098;2022-09-30T20:16:52;14.60;99.90
6462;DHT22;3264;42.862;25.098;2022-09-30T20:19:21;14.60;99.90
6462;DHT22;3264;42.862;25.098;2022-09-30T20:21:51;14.60;99.90
6462;DHT22;3264;42.862;25.098;2022-09-30T20:24:21;14.50;99.90
6462;DHT22;3264;42.862;25.098;2022-09-30T20:26:51;14.40;99.90
6462;DHT22;3264;42.862;25.098;2022-09-30T20:29:21;14.40;99.90
6462;DHT22;3264;42.862;25.098;2022-09-30T20:31:50;14.40;99.90
6462;DHT22;3264;42.862;25.098;2022-09-30T20:34:43;14.30;99.90
6462;DHT22;3264;42.862;25.098;2022-09-30T20:37:13;14.30;99.90
6462;DHT22;3264;42.862;25.098;2022-09-30T20:39:47;14.10;99.90
6462;DHT22;3264;42.862;25.098;2022-09-30T20:42:15;14.00;99.90
6462;DHT22;3264;42.862;25.098;2022-09-30T20:44:42;14.00;99.90
6462;DHT22;3264;42.862;25.098;2022-09-30T20:47:12;14.00;99.90
6462;DHT22;3264;42.862;25.098;2022-09-30T20:49:40;14.00;99.90
6462;DHT22;3264;42.862;25.098;2022-09-30T20:52:08;14.00;99.90
6462;DHT22;3264;42.862;25.098;2022-09-30T20:54:44;14.00;99.90
6462;DHT22;3264;42.862;25.098;2022-09-30T20:57:13;14.00;99.90
6462;DHT22;3264;42.862;25.098;2022-09-30T20:59:42;14.00;99.90
6462;DHT22;3264;42.862;25.098;2022-09-30T21:02:12;14.00;99.90
6462;DHT22;3264;42.862;25.098;2022-09-30T21:04:46;14.00;99.90
6462;DHT22;3264;42.862;25.098;2022-09-30T21:07:13;14.00;99.90
6462;DHT22;3264;42.862;25.098;2022-09-30T21:09:43;14.10;99.90
6462;DHT22;3264;42.862;25.098;2022-09-30T21:12:12;14.20;99.90
6462;DHT22;3264;42.862;25.098;2022-09-30T21:14:42;14.00;99.90
6462;DHT22;3264;42.862;25.098;2022-09-30T21:17:10;14.00;99.90
6462;DHT22;3264;42.862;25.098;2022-09-30T21:19:39;14.00;99.90
6462;DHT22;3264;42.862;25.098;2022-09-30T21:22:07;13.90;99.90
6462;DHT22;3264;42.862;25.098;2022-09-30T21:24:35;13.90;99.90
6462;DHT22;3264;42.862;25.098;2022-09-30T21:27:06;13.90;99.90
6462;DHT22;3264;42.862;25.098;2022-09-30T21:29:48;13.90;99.90
6462;DHT22;3264;42.862;25.098;2022-09-30T21:32:16;13.90;99.90
6462;DHT22;3264;42.862;25.098;2022-09-30T21:34:44;13.80;99.90